createdAt,value
2019-05-02T03:31:23.883Z,0.0
2019-05-02T03:41:38.484Z,4.0
2019-05-02T03:52:02.378Z,20.0
2019-05-02T04:02:13.827Z,64.0
2019-05-02T04:12:23.496Z,124.0
2019-05-02T04:22:35.467Z,212.0
2019-05-02T04:32:49.903Z,328.0
2019-05-02T04:43:02.156Z,468.0
2019-05-02T04:53:11.478Z,644.0
2019-05-02T05:03:24.959Z,864.0
2019-05-02T05:13:38.719Z,1020.0
2019-05-02T05:23:56.665Z,1240.0
2019-05-02T05:34:03.399Z,1272.0
2019-05-02T05:44:18.002Z,1308.0
2019-05-02T05:54:28.398Z,1628.0
2019-05-02T06:04:41.507Z,2260.0
2019-05-02T06:15:26.535Z,2904.0
2019-05-02T06:25:42.506Z,3192.0
2019-05-02T06:36:00.314Z,4088.0
2019-05-02T06:46:14.912Z,4972.0
2019-05-02T06:56:16.839Z,5544.0
2019-05-02T07:06:35.201Z,6124.0
2019-05-02T07:16:43.138Z,5524.0
2019-05-02T07:26:56.935Z,6728.0
2019-05-02T07:37:08.468Z,6820.0
2019-05-02T07:47:29.128Z,6244.0
2019-05-02T07:57:42.998Z,6656.0
2019-05-02T08:08:31.779Z,16128.0
2019-05-02T08:18:48.635Z,26912.0
2019-05-02T08:29:05.384Z,10580.0
2019-05-02T08:42:47.984Z,16128.0
2019-05-02T08:53:02.318Z,14688.0
2019-05-02T09:03:16.211Z,24736.0
2019-05-02T09:14:02.188Z,18656.0
2019-05-02T09:24:18.811Z,25568.0
2019-05-02T09:35:01.295Z,36384.0
2019-05-02T09:45:12.229Z,41152.0
2019-05-02T09:58:02.597Z,33376.0
2019-05-02T10:08:18.903Z,28032.0
2019-05-02T10:18:32.843Z,27712.0
2019-05-02T10:28:49.134Z,22720.0
2019-05-02T10:39:28.314Z,24576.0
2019-05-02T10:49:42.482Z,19872.0
2019-05-02T10:59:52.612Z,23872.0
2019-05-02T11:10:06.659Z,57152.0
2019-05-02T11:20:15.181Z,20480.0
2019-05-02T17:49:52.868Z,1540.0
2019-05-02T18:00:07.442Z,1548.0
2019-05-02T18:12:42.788Z,1508.0
2019-05-02T18:46:47.422Z,364.0
2019-05-02T18:58:22.584Z,160.0
2019-05-02T19:09:12.728Z,44.0
2019-05-02T19:19:32.323Z,12.0
2019-05-02T19:29:48.229Z,0.0
2019-05-02T19:40:39.451Z,0.0
2019-05-02T20:11:42.479Z,0.0
2019-05-02T20:22:36.291Z,0.0
2019-05-02T20:33:32.585Z,0.0
2019-05-02T20:44:26.139Z,0.0
2019-05-02T20:55:12.273Z,0.0
2019-05-02T21:06:02.913Z,0.0
2019-05-02T21:16:51.816Z,0.0
2019-05-02T21:27:21.801Z,0.0
2019-05-02T21:37:42.477Z,0.0
2019-05-02T21:47:54.623Z,0.0
2019-05-02T21:58:09.565Z,0.0
2019-05-02T22:10:42.570Z,0.0
2019-05-02T22:20:53.949Z,0.0
2019-05-02T22:31:14.408Z,0.0
2019-05-02T22:42:04.229Z,0.0
2019-05-02T22:52:12.225Z,0.0
2019-05-02T23:02:59.381Z,0.0
2019-05-02T23:13:34.058Z,0.0
2019-05-02T23:23:52.365Z,0.0
2019-05-02T23:35:47.866Z,0.0
2019-05-02T23:46:02.300Z,0.0
2019-05-02T23:56:15.066Z,0.0
